Terminal Aerodrome Forecast
Issued by NWS St Louis, MO

Home | Current Version | Previous Version | Text Only | Print | Product List | Glossary On
Versions: 1 2 3 4 5 6 7 8 9 10 11 12 13 14 15 16
708
FTUS43 KLSX 241720
TAFCOU
TAF
KCOU 241720Z 2418/2518 22010KT P6SM SCT040 SCT150
     FM250000 29006KT P6SM VCTS SCT050CB BKN100
     FM250400 36005KT P6SM BKN100
     FM250900 04006KT P6SM VCTS SCT050CB BKN100
     FM251400 04007KT P6SM SCT100 BKN250=

USA.gov is the U.S. government's official web portal to all federal, state and local government web resources and services.